createdAt,value
2023-05-24T00:12:36.746Z,98.5365
2023-05-24T00:13:38.369Z,98.5194
2023-05-24T00:18:45.674Z,98.4787
2023-05-24T00:25:52.839Z,98.4755
2023-05-24T00:26:54.264Z,98.4862
2023-05-24T00:27:56.069Z,98.4615
2023-05-24T00:28:57.175Z,98.4433
2023-05-24T00:31:01.058Z,98.4727
2023-05-24T00:32:03.200Z,98.4729
2023-05-24T00:33:04.332Z,98.4948
2023-05-24T00:34:06.805Z,98.5496
2023-05-24T00:35:08.742Z,98.6004
2023-05-24T00:36:10.676Z,98.5674
2023-05-24T00:38:13.396Z,98.6021
2023-05-24T00:39:15.812Z,98.5906
2023-05-24T00:52:29.621Z,98.6898
2023-05-24T00:53:31.178Z,98.7210
2023-05-24T00:54:32.144Z,98.7315
2023-05-24T00:55:33.874Z,98.7438
2023-05-24T00:56:35.708Z,98.7278
2023-05-24T00:57:35.356Z,98.6310
2023-05-24T00:59:38.841Z,98.6484
2023-05-24T01:00:41.336Z,98.6310
2023-05-24T01:13:59.086Z,98.6777
2023-05-24T01:15:01.266Z,98.6999
2023-05-24T01:16:03.350Z,98.6547
2023-05-24T01:17:04.776Z,98.6631
2023-05-24T01:18:06.427Z,98.6924
2023-05-24T01:19:07.832Z,98.7334
2023-05-24T01:20:09.134Z,98.7147
2023-05-24T01:21:10.461Z,98.7038
2023-05-24T01:22:12.080Z,98.7094
2023-05-24T01:23:13.460Z,98.7392
2023-05-24T01:24:15.823Z,98.7472
2023-05-24T01:32:24.201Z,98.8516
2023-05-24T01:33:24.836Z,98.8650
2023-05-24T01:34:25.995Z,98.8654
2023-05-24T01:35:27.486Z,98.8647
2023-05-24T01:36:28.998Z,98.8976
2023-05-24T01:37:30.878Z,98.9144
2023-05-24T01:38:32.395Z,98.9446
2023-05-24T01:47:41.679Z,99.0042
2023-05-24T01:49:44.922Z,98.9681
2023-05-24T01:50:46.346Z,99.0139
2023-05-24T01:51:47.793Z,99.0389
2023-05-24T01:52:48.627Z,99.0907
2023-05-24T01:53:49.688Z,99.1151
2023-05-24T01:54:51.147Z,99.0798
2023-05-24T01:55:52.140Z,99.0630
2023-05-24T01:56:52.888Z,99.0853
2023-05-24T01:57:54.024Z,99.0933
2023-05-24T01:59:56.105Z,99.1197
2023-05-24T02:00:57.127Z,99.1442
2023-05-24T02:02:59.383Z,99.1080
2023-05-24T02:03:59.802Z,99.1131
2023-05-24T02:05:00.763Z,99.1388
2023-05-24T02:06:01.900Z,99.1307
2023-05-24T02:07:02.838Z,99.0896
2023-05-24T02:09:07.930Z,99.0763
2023-05-24T02:18:16.657Z,99.0335
2023-05-24T02:19:18.505Z,99.0600
2023-05-24T02:20:19.880Z,99.0529
2023-05-24T02:21:21.078Z,99.0408
2023-05-24T02:23:24.862Z,99.0768
2023-05-24T02:33:39.166Z,99.0764
2023-05-24T02:34:39.469Z,99.0848
2023-05-24T02:35:40.521Z,99.1140
2023-05-24T02:37:43.979Z,99.1494
2023-05-24T02:38:46.062Z,99.1461
2023-05-24T02:47:56.907Z,99.0183
2023-05-24T02:55:05.458Z,99.1155
2023-05-24T02:56:07.362Z,99.1306
2023-05-24T02:57:09.158Z,99.1379
2023-05-24T03:12:30.160Z,99.1363
2023-05-24T03:13:31.446Z,99.1481
2023-05-24T03:14:31.930Z,99.1869
2023-05-24T03:15:33.687Z,99.2000
2023-05-24T03:16:36.037Z,99.2052
2023-05-24T03:17:38.293Z,99.1892
2023-05-24T03:18:38.076Z,99.2108
2023-05-24T03:19:40.554Z,99.2162
2023-05-24T03:31:53.504Z,99.3380
2023-05-24T03:32:54.947Z,99.3430
2023-05-24T03:33:56.199Z,99.3543
2023-05-24T03:34:57.222Z,99.3634
2023-05-24T03:35:58.641Z,99.3686
2023-05-24T03:36:59.823Z,99.3671
2023-05-24T03:38:00.902Z,99.3717
2023-05-24T03:39:02.538Z,99.3702
2023-05-24T03:40:04.075Z,99.3517
2023-05-24T03:41:05.326Z,99.3659
2023-05-24T03:42:05.927Z,99.3752
2023-05-24T03:43:07.229Z,99.3746
2023-05-24T03:44:07.610Z,99.3835
2023-05-24T03:45:09.032Z,99.3920
2023-05-24T03:46:09.426Z,99.4024
2023-05-24T03:48:12.662Z,99.3940
2023-05-24T03:49:14.870Z,99.3885
2023-05-24T03:59:28.230Z,99.4409
2023-05-24T04:00:29.828Z,99.4516
2023-05-24T04:09:39.591Z,99.5246
2023-05-24T04:10:41.597Z,99.5389
2023-05-24T04:11:42.733Z,99.5531
2023-05-24T04:12:43.852Z,99.5601
2023-05-24T04:13:44.423Z,99.5554
2023-05-24T04:14:45.683Z,99.5476
2023-05-24T04:16:48.903Z,99.5496
2023-05-24T04:17:51.799Z,99.5782
2023-05-24T04:18:53.174Z,99.5813
2023-05-24T04:19:54.454Z,99.5807
2023-05-24T04:20:56.261Z,99.5834
2023-05-24T04:21:58.075Z,99.5724
2023-05-24T04:22:59.111Z,99.5796
2023-05-24T04:24:01.558Z,99.5951
2023-05-24T04:25:03.144Z,99.6064
2023-05-24T04:26:05.210Z,99.6095
2023-05-24T04:28:07.878Z,99.5913
2023-05-24T04:29:09.537Z,99.5970
2023-05-24T04:30:10.926Z,99.5951
2023-05-24T04:31:11.096Z,99.5890
2023-05-24T04:32:12.915Z,99.5692
2023-05-24T04:33:14.921Z,99.5831
2023-05-24T04:36:15.949Z,99.5890
2023-05-24T04:41:22.100Z,99.5617
2023-05-24T04:42:24.105Z,99.5417
2023-05-24T04:43:24.195Z,99.5375
2023-05-24T04:44:25.104Z,99.5336
2023-05-24T04:45:26.837Z,99.5388
2023-05-24T04:46:29.094Z,99.5519
2023-05-24T04:47:29.276Z,99.5311
2023-05-24T04:48:31.199Z,99.5187
2023-05-24T04:49:32.699Z,99.5284
2023-05-24T04:50:34.845Z,99.4857
2023-05-24T04:51:36.967Z,99.4709
2023-05-24T04:52:39.432Z,99.4623
2023-05-24T04:53:40.312Z,99.4653
2023-05-24T04:54:41.340Z,99.4628
2023-05-24T04:55:44.054Z,99.4648
2023-05-24T04:56:46.080Z,99.4516
2023-05-24T04:57:46.788Z,99.4503
2023-05-24T04:59:49.593Z,99.4153
2023-05-24T05:05:55.832Z,99.3970
2023-05-24T05:06:58.538Z,99.3985
2023-05-24T05:07:59.153Z,99.3929
2023-05-24T05:10:00.666Z,99.3712
2023-05-24T05:11:01.923Z,99.3476
2023-05-24T05:12:02.943Z,99.3578
2023-05-24T05:13:04.044Z,99.3373
2023-05-24T05:14:05.192Z,99.3114
2023-05-24T05:15:06.141Z,99.2767
2023-05-24T05:16:07.244Z,99.2627
2023-05-24T05:17:08.192Z,99.2258
2023-05-24T05:18:09.250Z,99.2168
2023-05-24T05:20:13.286Z,99.1993
2023-05-24T05:21:14.338Z,99.1250
2023-05-24T05:22:16.147Z,99.0418
2023-05-24T05:23:18.154Z,99.0565
2023-05-24T05:24:19.233Z,99.0194
2023-05-24T05:26:21.502Z,98.9581
2023-05-24T05:27:23.271Z,98.9253
2023-05-24T05:28:24.202Z,98.9571
2023-05-24T05:29:25.227Z,98.9666
2023-05-24T05:30:26.806Z,98.9659
2023-05-24T05:31:28.528Z,98.9600
2023-05-24T05:32:30.612Z,98.9754
2023-05-24T05:33:31.236Z,98.9537
2023-05-24T05:34:32.279Z,98.9524
2023-05-24T05:35:33.176Z,98.9269
2023-05-24T05:36:34.823Z,98.9704
2023-05-24T05:37:35.032Z,98.9281
2023-05-24T05:40:39.166Z,98.9268
2023-05-24T05:41:40.233Z,98.9361
2023-05-24T05:42:42.045Z,98.8576
2023-05-24T05:43:43.299Z,98.8878
2023-05-24T05:44:45.775Z,98.9320
2023-05-24T05:58:05.620Z,98.5894
2023-05-24T05:59:07.939Z,98.6052
2023-05-24T06:00:09.927Z,98.6195
2023-05-24T06:07:17.270Z,98.4922
2023-05-24T06:08:19.121Z,98.4239
2023-05-24T06:14:24.253Z,98.0293
2023-05-24T06:19:30.731Z,97.8437
2023-05-24T06:20:33.224Z,97.8595
2023-05-24T06:26:41.053Z,97.4807
2023-05-24T06:27:43.310Z,97.2981
2023-05-24T06:28:43.851Z,97.4496
2023-05-24T06:29:45.253Z,97.5131
2023-05-24T06:30:47.070Z,97.6044
2023-05-24T06:31:48.643Z,97.6366
2023-05-24T06:36:54.284Z,97.9583
2023-05-24T06:37:55.754Z,98.1123
2023-05-24T06:38:57.527Z,98.1522
2023-05-24T06:39:59.232Z,98.1676
2023-05-24T06:41:01.593Z,98.2171
2023-05-24T06:42:01.664Z,98.1657
2023-05-24T06:43:03.411Z,98.2121
2023-05-24T06:44:04.591Z,98.2287
2023-05-24T06:45:06.289Z,98.1865
2023-05-24T06:46:08.567Z,98.1552
2023-05-24T06:53:15.683Z,97.7465
2023-05-24T07:01:24.578Z,95.5053
2023-05-24T07:02:26.995Z,95.2026
2023-05-24T07:03:28.836Z,95.4568
2023-05-24T07:04:30.330Z,94.9482
2023-05-24T07:05:31.330Z,94.3465
2023-05-24T07:06:32.925Z,94.1124
2023-05-24T07:07:33.937Z,93.9918
2023-05-24T07:08:35.517Z,93.0290
2023-05-24T07:09:37.438Z,92.9124
2023-05-24T07:10:40.252Z,93.1407
2023-05-24T07:23:55.064Z,95.0701
2023-05-24T07:44:14.709Z,95.8485
2023-05-24T07:45:16.058Z,95.7761
2023-05-24T07:46:17.965Z,95.6916
2023-05-24T07:47:19.777Z,95.7824
2023-05-24T07:48:21.804Z,95.8482
2023-05-24T07:49:22.092Z,95.5783
2023-05-24T07:50:23.300Z,95.4917
2023-05-24T07:51:24.636Z,95.4550
2023-05-24T07:52:25.625Z,95.3566
2023-05-24T07:53:27.477Z,95.5087
2023-05-24T07:54:28.572Z,95.3967
2023-05-24T07:55:29.891Z,96.0126
2023-05-24T07:56:31.030Z,95.8293
2023-05-24T07:57:33.457Z,95.5328
2023-05-24T07:58:34.517Z,95.1816
2023-05-24T08:00:37.357Z,95.2506
2023-05-24T08:01:38.610Z,95.0380
2023-05-24T08:03:42.723Z,94.8511
2023-05-24T08:04:44.424Z,94.5185
2023-05-24T08:05:46.146Z,94.4176
2023-05-24T08:07:49.786Z,94.2756
2023-05-24T08:08:50.835Z,93.6994
2023-05-24T08:09:52.480Z,93.4606
2023-05-24T08:10:54.763Z,92.7189
2023-05-24T08:11:57.336Z,92.6706
2023-05-24T08:13:58.164Z,92.6118
2023-05-24T08:14:59.781Z,92.6880
2023-05-24T08:16:00.764Z,93.3549
2023-05-24T08:17:02.227Z,93.2843
2023-05-24T08:18:05.776Z,93.2782
2023-05-24T08:20:14.484Z,93.6670
2023-05-24T08:21:43.257Z,93.2499
2023-05-24T08:31:21.260Z,90.7709
2023-05-24T08:34:25.428Z,91.0928
2023-05-24T08:35:27.013Z,90.6919
2023-05-24T08:36:28.574Z,91.1645
2023-05-24T08:37:29.597Z,90.2187
2023-05-24T08:38:30.818Z,90.4239
2023-05-24T08:39:31.900Z,89.9171
2023-05-24T08:40:33.177Z,90.0298
2023-05-24T08:41:34.663Z,89.8073
2023-05-24T08:42:36.048Z,90.7464
2023-05-24T08:43:36.792Z,89.9492
2023-05-24T08:44:38.141Z,90.4463
2023-05-24T08:45:39.293Z,89.7714
2023-05-24T08:46:40.773Z,90.7825
2023-05-24T08:47:41.903Z,90.3990
2023-05-24T08:48:43.306Z,90.5291
2023-05-24T08:49:44.147Z,90.8481
2023-05-24T08:51:47.512Z,89.5799
2023-05-24T08:52:47.532Z,90.7217
2023-05-24T08:53:49.399Z,90.3245
2023-05-24T08:54:51.307Z,90.9480
2023-05-24T08:55:53.073Z,91.4949
2023-05-24T08:58:58.399Z,90.6558
2023-05-24T09:00:01.174Z,90.7844
2023-05-24T09:07:09.358Z,90.2845
2023-05-24T09:08:11.208Z,91.0258
2023-05-24T09:09:12.151Z,90.7604
2023-05-24T09:11:14.547Z,91.2121
2023-05-24T09:14:17.607Z,90.8804
2023-05-24T09:15:18.516Z,89.9987
2023-05-24T09:16:19.799Z,90.7347
2023-05-24T09:17:20.867Z,89.7553
2023-05-24T09:18:22.964Z,91.3633
2023-05-24T09:19:24.111Z,91.3552
2023-05-24T09:20:26.161Z,90.2784
2023-05-24T09:21:26.999Z,89.5389
2023-05-24T09:24:31.621Z,90.2071
2023-05-24T09:25:32.701Z,89.2638
2023-05-24T09:27:35.913Z,89.4258
2023-05-24T09:28:35.716Z,89.6458
2023-05-24T09:34:43.244Z,87.7307
2023-05-24T09:35:45.018Z,89.2362
2023-05-24T09:36:46.085Z,88.6314
2023-05-24T09:37:48.170Z,87.4721
2023-05-24T09:38:49.232Z,88.1512
2023-05-24T09:39:50.546Z,88.0451
2023-05-24T09:40:52.785Z,90.2100
2023-05-24T09:41:54.715Z,88.4497
2023-05-24T09:42:55.857Z,87.2213
2023-05-24T09:44:59.369Z,87.1144
2023-05-24T09:46:00.734Z,87.5370
2023-05-24T09:47:03.217Z,86.4171
2023-05-24T09:48:05.080Z,86.1889
2023-05-24T09:49:06.082Z,86.6067
2023-05-24T09:50:07.590Z,86.3370
2023-05-24T09:51:09.341Z,86.1641
2023-05-24T09:52:10.460Z,86.5793
2023-05-24T09:53:11.664Z,86.1758
2023-05-24T09:54:13.542Z,85.4452
2023-05-24T09:55:13.979Z,83.9873
2023-05-24T09:57:16.542Z,86.0475
2023-05-24T09:58:18.166Z,84.5249
2023-05-24T09:59:18.407Z,84.6074
2023-05-24T10:01:20.567Z,84.7062
2023-05-24T10:02:22.145Z,84.3836
2023-05-24T10:03:22.295Z,84.6315
2023-05-24T10:05:24.823Z,82.5911
2023-05-24T10:06:26.276Z,83.8509
2023-05-24T10:07:27.804Z,82.3517
2023-05-24T10:08:29.085Z,82.9000
2023-05-24T10:09:30.357Z,83.9705
2023-05-24T10:10:31.554Z,82.2468
2023-05-24T10:11:32.638Z,81.9492
2023-05-24T10:12:33.760Z,82.2531
2023-05-24T10:15:37.782Z,82.1412
2023-05-24T10:16:38.969Z,82.4093
2023-05-24T10:17:40.107Z,81.4382
2023-05-24T10:18:41.375Z,82.0792
2023-05-24T10:19:42.485Z,81.5262
2023-05-24T10:20:45.147Z,82.1009
2023-05-24T10:21:44.674Z,82.8516
2023-05-24T10:22:45.828Z,83.3579
2023-05-24T10:23:46.936Z,82.7430
2023-05-24T10:24:47.214Z,83.4391
2023-05-24T10:25:48.364Z,82.6069
2023-05-24T10:26:50.084Z,82.9430
2023-05-24T10:27:50.444Z,83.4513
2023-05-24T10:28:51.783Z,83.0575
2023-05-24T10:29:52.361Z,82.5312
2023-05-24T10:30:53.680Z,83.6097
2023-05-24T10:31:55.423Z,84.7902
2023-05-24T10:32:57.464Z,82.6014
2023-05-24T10:37:01.275Z,83.7279
2023-05-24T10:38:02.453Z,83.3168
2023-05-24T10:39:02.516Z,84.7109
2023-05-24T10:40:03.858Z,84.7485
2023-05-24T10:41:05.100Z,83.9919
2023-05-24T10:42:10.124Z,84.6457
2023-05-24T11:03:28.072Z,86.0354
2023-05-24T11:04:28.586Z,85.9077
2023-05-24T11:05:29.697Z,85.6840
2023-05-24T11:06:30.644Z,85.3585
2023-05-24T11:07:31.657Z,86.3385
2023-05-24T11:08:32.793Z,87.2744
2023-05-24T11:09:33.125Z,87.3126
2023-05-24T11:10:34.296Z,86.3478
2023-05-24T11:11:35.399Z,86.2271
2023-05-24T11:12:36.404Z,85.9227
2023-05-24T11:13:37.476Z,85.7940
2023-05-24T11:14:38.605Z,86.6261
2023-05-24T11:15:39.630Z,85.7627
2023-05-24T11:16:41.559Z,84.3606
2023-05-24T11:21:49.513Z,84.8723
2023-05-24T11:22:50.470Z,84.7349
2023-05-24T11:23:51.432Z,85.0467
2023-05-24T11:24:52.420Z,84.9880
2023-05-24T11:25:53.389Z,85.9885
2023-05-24T11:26:54.402Z,85.2177
2023-05-24T11:28:56.283Z,84.2630
2023-05-24T11:29:57.279Z,83.8902
2023-05-24T11:30:58.296Z,83.8516
2023-05-24T11:31:59.378Z,83.7676
2023-05-24T11:33:00.637Z,84.2455
2023-05-24T11:34:01.604Z,83.9625
2023-05-24T11:35:02.613Z,84.3881
2023-05-24T11:37:04.825Z,83.2818
2023-05-24T11:39:07.876Z,83.9542
2023-05-24T11:40:09.103Z,83.5470
2023-05-24T11:41:10.539Z,82.8317
2023-05-24T11:42:11.745Z,82.6115
2023-05-24T11:43:16.957Z,82.2149
2023-05-24T11:48:18.965Z,82.5010
2023-05-24T11:49:20.062Z,82.9908
2023-05-24T11:50:21.955Z,82.0037
2023-05-24T11:51:22.992Z,81.3607
2023-05-24T11:52:24.080Z,81.9463
2023-05-24T11:53:25.109Z,82.2584
2023-05-24T11:54:26.254Z,82.3362
2023-05-24T11:57:29.527Z,82.0585
2023-05-24T11:58:30.503Z,81.3830
2023-05-24T11:59:31.432Z,80.6298
2023-05-24T12:00:31.804Z,79.1330
2023-05-24T12:01:32.958Z,79.7690
2023-05-24T12:02:34.162Z,80.6638
2023-05-24T12:03:35.941Z,79.4721
2023-05-24T12:04:36.465Z,79.7976
2023-05-24T12:05:37.744Z,79.6618
2023-05-24T12:06:38.931Z,80.5631
2023-05-24T12:07:39.900Z,81.2270
2023-05-24T12:08:41.022Z,80.4615
2023-05-24T12:11:44.988Z,81.1985
2023-05-24T12:12:46.609Z,79.3858
2023-05-24T12:16:51.399Z,76.8790
2023-05-24T12:17:52.657Z,76.7153
2023-05-24T12:19:54.428Z,78.6714
2023-05-24T12:20:55.468Z,78.4185
2023-05-24T12:23:59.483Z,76.8504
2023-05-24T12:25:00.518Z,76.1945
2023-05-24T12:26:01.516Z,76.4239
2023-05-24T12:27:02.570Z,75.8038
2023-05-24T12:28:03.559Z,76.0639
2023-05-24T12:29:04.087Z,76.1448
2023-05-24T12:30:04.672Z,75.7457
2023-05-24T12:31:06.735Z,73.9556
2023-05-24T12:32:07.848Z,73.8177
2023-05-24T12:33:09.029Z,74.1505
2023-05-24T12:34:10.102Z,74.5456
2023-05-24T12:35:12.094Z,73.3787
2023-05-24T12:36:13.088Z,74.9176
2023-05-24T12:38:14.634Z,76.3626
2023-05-24T12:39:15.924Z,73.9354
2023-05-24T12:40:16.988Z,73.4890
2023-05-24T12:41:18.040Z,75.0188
2023-05-24T12:42:19.022Z,75.9940
2023-05-24T12:43:19.476Z,74.2865
2023-05-24T12:44:21.512Z,74.2094
2023-05-24T12:45:23.608Z,75.1490
2023-05-24T12:46:24.717Z,75.6271
2023-05-24T12:47:26.933Z,74.1559
2023-05-24T12:48:28.004Z,75.6287
2023-05-24T12:49:30.296Z,76.1847
2023-05-24T12:50:31.423Z,75.5002
2023-05-24T12:51:32.693Z,76.9872
2023-05-24T12:52:33.993Z,75.7794
2023-05-24T12:53:35.154Z,75.8019
2023-05-24T12:54:37.288Z,75.7926
2023-05-24T12:55:38.299Z,76.4944
2023-05-24T12:57:40.450Z,76.5133
2023-05-24T12:58:41.639Z,76.5172
2023-05-24T12:59:42.687Z,75.3843
2023-05-24T13:00:45.024Z,73.2120
2023-05-24T13:01:46.457Z,73.8898
2023-05-24T13:02:47.861Z,75.3599
2023-05-24T13:03:48.865Z,76.6466
2023-05-24T13:04:50.151Z,76.1015
2023-05-24T13:05:51.283Z,76.9096
2023-05-24T13:06:52.964Z,78.1961
2023-05-24T13:07:54.005Z,77.2562
2023-05-24T13:08:55.833Z,77.8168
2023-05-24T13:09:57.095Z,75.3671
2023-05-24T13:10:58.287Z,78.5107
2023-05-24T13:13:00.315Z,77.7551
2023-05-24T13:14:01.380Z,77.4880
2023-05-24T13:15:02.478Z,77.5505
2023-05-24T13:16:04.579Z,78.8539
2023-05-24T13:17:05.728Z,78.7573
2023-05-24T13:18:06.915Z,80.5306
2023-05-24T13:19:07.932Z,81.7376
2023-05-24T13:20:10.000Z,80.2490
2023-05-24T13:21:12.844Z,80.8717
2023-05-24T13:34:23.914Z,79.3732
2023-05-24T13:35:25.103Z,79.6527
2023-05-24T13:36:26.316Z,80.9970
2023-05-24T13:37:27.490Z,81.7814
2023-05-24T13:38:28.718Z,81.2428
2023-05-24T13:39:30.068Z,80.2403
2023-05-24T13:40:31.106Z,81.8911
2023-05-24T13:41:32.293Z,81.7575
2023-05-24T13:42:33.604Z,81.1589
2023-05-24T13:43:33.764Z,81.6574
2023-05-24T13:44:34.794Z,81.9155
2023-05-24T13:45:35.949Z,81.8976
2023-05-24T13:46:37.365Z,81.3851
2023-05-24T13:48:39.710Z,82.2814
2023-05-24T13:49:40.906Z,82.7780
2023-05-24T13:50:42.617Z,82.3856
2023-05-24T13:51:44.121Z,82.7523
2023-05-24T13:52:45.291Z,83.3935
2023-05-24T13:53:46.488Z,82.7833
2023-05-24T13:54:47.747Z,83.1188
2023-05-24T13:55:48.840Z,82.3545
2023-05-24T13:57:52.853Z,81.9281
2023-05-24T13:58:54.029Z,82.7209
2023-05-24T13:59:55.197Z,82.6584
2023-05-24T14:00:56.616Z,83.0623
2023-05-24T14:01:57.951Z,82.7876
2023-05-24T14:02:59.743Z,83.6667
2023-05-24T14:04:00.784Z,83.3445
2023-05-24T14:05:25.022Z,83.3578
2023-05-24T14:17:43.248Z,84.7188
2023-05-24T14:18:44.439Z,83.4509
2023-05-24T14:19:45.423Z,85.2558
2023-05-24T14:20:46.656Z,85.0679
2023-05-24T14:21:47.693Z,84.7070
2023-05-24T14:22:48.839Z,84.6333
2023-05-24T14:23:49.866Z,83.8596
2023-05-24T14:24:49.870Z,82.5447
2023-05-24T14:25:50.890Z,83.2818
2023-05-24T14:26:51.358Z,82.8511
2023-05-24T14:27:52.310Z,82.1409
2023-05-24T14:28:57.197Z,82.6340
2023-05-24T14:31:55.792Z,83.3382
2023-05-24T14:32:57.177Z,81.6452
2023-05-24T14:33:58.525Z,81.6114
2023-05-24T14:34:59.772Z,81.6628
2023-05-24T14:36:00.891Z,81.1404
2023-05-24T14:37:02.060Z,81.6726
2023-05-24T14:38:03.217Z,82.2670
2023-05-24T14:39:04.374Z,81.2695
2023-05-24T14:41:06.824Z,82.6001
2023-05-24T14:42:07.951Z,81.4249
2023-05-24T14:43:09.089Z,81.5330
2023-05-24T14:44:09.659Z,79.4808
2023-05-24T14:45:10.383Z,80.4452
2023-05-24T14:46:11.656Z,80.9823
2023-05-24T14:48:14.379Z,80.2236
2023-05-24T14:49:15.820Z,80.0545
2023-05-24T14:50:17.987Z,81.8324
2023-05-24T14:51:19.070Z,82.3974
2023-05-24T14:52:20.426Z,80.7909
2023-05-24T14:53:21.480Z,80.3431
2023-05-24T14:54:23.575Z,79.9169
2023-05-24T14:55:24.624Z,81.1222
2023-05-24T14:56:25.649Z,81.6990
2023-05-24T14:57:26.616Z,81.8219
2023-05-24T14:59:28.694Z,81.6118
2023-05-24T15:00:29.791Z,81.3982
2023-05-24T15:01:31.101Z,82.2562
2023-05-24T15:02:33.216Z,81.6627
2023-05-24T15:03:34.750Z,82.6898
2023-05-24T15:04:36.082Z,82.2134
2023-05-24T15:05:37.555Z,81.2091
2023-05-24T15:06:38.733Z,81.4014
2023-05-24T15:07:39.821Z,82.2781
2023-05-24T15:08:40.840Z,82.3956
2023-05-24T15:09:41.463Z,81.3970
2023-05-24T15:10:43.077Z,82.6495
2023-05-24T15:11:44.330Z,84.2192
2023-05-24T15:12:45.310Z,83.0045
2023-05-24T15:13:46.367Z,81.4811
2023-05-24T15:14:48.268Z,81.9095
2023-05-24T15:15:50.299Z,82.4904
2023-05-24T15:16:51.523Z,82.5402
2023-05-24T15:17:52.697Z,82.1707
2023-05-24T15:18:53.924Z,82.6828
2023-05-24T15:19:55.106Z,82.1949
2023-05-24T15:20:56.715Z,82.7155
2023-05-24T15:21:58.289Z,83.8979
2023-05-24T15:22:59.620Z,83.1142
2023-05-24T15:48:21.623Z,82.9557
2023-05-24T15:49:22.766Z,83.1642
2023-05-24T15:52:01.069Z,81.1600
2023-05-24T16:03:05.457Z,84.1018
2023-05-24T16:04:05.760Z,81.9036
2023-05-24T16:05:07.624Z,80.6003
2023-05-24T16:06:09.573Z,82.0063
2023-05-24T16:07:10.793Z,83.8670
2023-05-24T16:08:12.097Z,84.6513
2023-05-24T16:09:13.610Z,83.3042
2023-05-24T16:10:14.867Z,85.3468
2023-05-24T16:11:15.303Z,85.5612
2023-05-24T16:12:16.697Z,85.0261
2023-05-24T16:13:17.896Z,83.6562
2023-05-24T16:14:19.056Z,82.3664
2023-05-24T16:15:20.272Z,83.3800
2023-05-24T16:16:22.324Z,83.0976
2023-05-24T16:17:23.429Z,82.4950
2023-05-24T16:18:24.239Z,81.5531
2023-05-24T16:20:26.673Z,83.5533
2023-05-24T16:21:28.628Z,83.2199
2023-05-24T16:22:29.602Z,82.2992
2023-05-24T16:23:30.066Z,81.8961
2023-05-24T16:24:30.861Z,82.8390
2023-05-24T16:25:31.876Z,82.9855
2023-05-24T16:26:32.997Z,81.8940
2023-05-24T16:27:35.071Z,81.1712
2023-05-24T16:28:36.481Z,81.4807
2023-05-24T16:29:37.723Z,81.7893
2023-05-24T16:30:38.938Z,82.6577
2023-05-24T16:31:40.223Z,83.0199
2023-05-24T16:32:40.988Z,83.2409
2023-05-24T16:33:42.035Z,82.6530
2023-05-24T16:34:56.738Z,81.8219
2023-05-24T16:36:13.753Z,82.9563
2023-05-24T16:37:14.033Z,82.2664
2023-05-24T16:38:15.327Z,82.0761
2023-05-24T16:39:16.513Z,81.8701
2023-05-24T16:40:17.672Z,82.7928
2023-05-24T16:41:18.780Z,84.0787
2023-05-24T16:42:19.832Z,83.8875
2023-05-24T16:43:21.979Z,81.5245
2023-05-24T16:44:23.059Z,81.8915
2023-05-24T16:45:24.313Z,80.9090
2023-05-24T16:46:24.882Z,80.7487
2023-05-24T16:47:30.153Z,81.7287
2023-05-24T16:49:27.776Z,79.8044
2023-05-24T16:50:28.664Z,81.2461
2023-05-24T16:51:29.581Z,81.2361
2023-05-24T16:52:30.577Z,80.9078
2023-05-24T16:53:31.489Z,81.6734
2023-05-24T16:54:32.457Z,81.7271
2023-05-24T16:57:36.440Z,81.6572
2023-05-24T16:58:37.384Z,80.8522
2023-05-24T16:59:38.331Z,80.8127
2023-05-24T17:00:39.315Z,79.6258
2023-05-24T17:01:40.579Z,80.0508
2023-05-24T17:03:42.741Z,81.1223
2023-05-24T17:04:43.809Z,79.2349
2023-05-24T17:05:44.933Z,79.6609
2023-05-24T17:06:46.052Z,79.8885
2023-05-24T17:07:47.471Z,80.7549
2023-05-24T17:10:50.579Z,80.9326
2023-05-24T17:11:51.665Z,83.4469
2023-05-24T17:12:52.746Z,80.7219
2023-05-24T17:13:53.739Z,81.7918
2023-05-24T17:14:55.667Z,82.9454
2023-05-24T17:15:56.653Z,83.2032
2023-05-24T17:16:57.668Z,81.4506
2023-05-24T17:17:58.801Z,82.8318
2023-05-24T17:19:00.320Z,84.4006
2023-05-24T17:20:01.820Z,81.8388
2023-05-24T17:21:03.880Z,81.2937
2023-05-24T17:22:04.908Z,83.7759
2023-05-24T17:23:05.995Z,80.7512
2023-05-24T17:24:06.744Z,81.9318
2023-05-24T17:25:07.887Z,83.4743
2023-05-24T17:26:09.115Z,82.7102
2023-05-24T17:27:10.642Z,84.3871
2023-05-24T17:28:12.201Z,82.2918
2023-05-24T17:29:13.705Z,81.9936
2023-05-24T17:30:15.122Z,82.8904
2023-05-24T17:31:16.403Z,83.6903
2023-05-24T17:32:17.554Z,83.1538
2023-05-24T17:33:18.920Z,82.0621
2023-05-24T17:34:20.420Z,84.3046
2023-05-24T17:35:21.811Z,84.5815
2023-05-24T17:36:23.214Z,81.3106
2023-05-24T17:39:27.508Z,81.3117
2023-05-24T17:40:27.941Z,81.8501
2023-05-24T17:41:29.132Z,81.6764
2023-05-24T17:42:30.732Z,81.1508
2023-05-24T17:43:32.096Z,84.3062
2023-05-24T17:44:35.052Z,82.3758
2023-05-24T17:56:46.902Z,82.5142
2023-05-24T17:57:48.231Z,82.0239
2023-05-24T17:59:50.806Z,80.1791
2023-05-24T18:00:54.743Z,80.6654
2023-05-24T18:11:06.408Z,80.9562
2023-05-24T18:14:07.228Z,79.9470
2023-05-24T18:15:08.982Z,80.3931
2023-05-24T18:16:09.970Z,80.4879
2023-05-24T18:17:12.129Z,81.1756
2023-05-24T18:18:13.404Z,81.1839
2023-05-24T18:19:15.669Z,81.2062
2023-05-24T18:20:16.613Z,82.1162
2023-05-24T18:21:18.448Z,82.4315
2023-05-24T18:22:20.559Z,82.6444
2023-05-24T18:23:23.089Z,85.2797
2023-05-24T18:24:24.050Z,82.0034
2023-05-24T18:26:27.197Z,84.1270
2023-05-24T18:27:28.806Z,82.7584
2023-05-24T18:28:30.283Z,82.5865
2023-05-24T18:30:33.900Z,83.5332
2023-05-24T18:31:34.841Z,84.1429
2023-05-24T18:33:38.233Z,83.3322
2023-05-24T18:34:39.202Z,82.7541
2023-05-24T18:38:44.452Z,85.3537
2023-05-24T18:48:52.663Z,88.0433
2023-05-24T18:56:02.099Z,87.2723
2023-05-24T18:57:03.208Z,85.9292
2023-05-24T18:58:04.102Z,87.1023
2023-05-24T18:59:05.023Z,85.4779
2023-05-24T19:00:05.063Z,86.2893
2023-05-24T19:01:08.261Z,87.2366
2023-05-24T19:02:09.453Z,86.6309
2023-05-24T19:03:11.643Z,86.1175
2023-05-24T19:05:11.217Z,84.6361
2023-05-24T19:06:12.891Z,86.7423
2023-05-24T19:07:13.948Z,89.1731
2023-05-24T19:08:14.361Z,87.8503
2023-05-24T19:09:15.281Z,86.5940
2023-05-24T19:10:16.215Z,86.9302
2023-05-24T19:12:20.327Z,87.4776
2023-05-24T19:13:21.945Z,88.8275
2023-05-24T19:15:25.208Z,85.0825
2023-05-24T19:16:27.683Z,85.2117
2023-05-24T19:22:34.930Z,86.5461
2023-05-24T19:23:36.424Z,85.6116
2023-05-24T19:24:37.795Z,84.4661
2023-05-24T19:25:42.451Z,85.2444
2023-05-24T19:26:39.375Z,85.1818
2023-05-24T19:27:58.596Z,85.1344
2023-05-24T19:40:25.723Z,83.1715
2023-05-24T19:41:27.887Z,83.6779
2023-05-24T19:42:29.304Z,83.8403
2023-05-24T19:43:30.468Z,84.2442
2023-05-24T19:44:32.088Z,84.0146
2023-05-24T19:45:34.133Z,84.1177
2023-05-24T19:46:35.461Z,84.5927
2023-05-24T19:48:37.704Z,85.3738
2023-05-24T19:49:39.246Z,85.1935
2023-05-24T19:50:40.152Z,86.0587
2023-05-24T19:51:41.666Z,86.2810
2023-05-24T19:52:43.318Z,86.7757
2023-05-24T19:53:45.528Z,87.3929
2023-05-24T19:54:47.329Z,86.4971
2023-05-24T20:00:54.167Z,87.8554
2023-05-24T20:01:55.567Z,87.6873
2023-05-24T20:02:56.824Z,87.5772
2023-05-24T20:05:00.507Z,88.3526
2023-05-24T20:06:02.383Z,88.1682
2023-05-24T20:14:11.603Z,87.2736
2023-05-24T20:15:12.667Z,87.0561
2023-05-24T20:18:17.256Z,87.3091
2023-05-24T20:19:18.879Z,87.3835
2023-05-24T20:20:20.366Z,86.6932
2023-05-24T20:21:21.272Z,87.2168
2023-05-24T20:22:22.130Z,88.0358
2023-05-24T20:23:23.890Z,88.0740
2023-05-24T20:24:25.771Z,87.8245
2023-05-24T20:25:27.176Z,87.6708
2023-05-24T20:37:39.341Z,91.2817
2023-05-24T20:39:42.480Z,91.5235
2023-05-24T20:40:43.464Z,92.0411
2023-05-24T20:41:45.099Z,91.6097
2023-05-24T20:42:45.987Z,91.0688
2023-05-24T20:43:47.360Z,91.8476
2023-05-24T20:45:48.488Z,92.7109
2023-05-24T20:46:50.189Z,93.1890
2023-05-24T20:47:51.204Z,93.7228
2023-05-24T20:48:52.303Z,93.8246
2023-05-24T20:49:53.522Z,93.6428
2023-05-24T20:51:55.253Z,93.9104